createdAt,value
2022-11-28T00:00:14.760Z,4.00
2022-11-28T00:02:44.191Z,4.10
2022-11-28T00:05:13.901Z,4.10
2022-11-28T00:07:45.604Z,4.10
2022-11-28T00:10:15.203Z,4.10
2022-11-28T00:12:44.023Z,4.10
2022-11-28T00:15:12.771Z,4.10
2022-11-28T00:17:41.004Z,4.10
2022-11-28T00:20:12.983Z,4.10
2022-11-28T00:22:41.241Z,4.10
2022-11-28T00:25:09.901Z,4.10
2022-11-28T00:27:39.985Z,4.00
2022-11-28T00:30:09.929Z,4.00
2022-11-28T00:32:41.568Z,4.10
2022-11-28T00:35:10.757Z,4.10
2022-11-28T00:37:38.906Z,4.10
2022-11-28T00:40:08.491Z,4.10
2022-11-28T00:42:36.700Z,4.10
2022-11-28T00:45:09.410Z,4.10
2022-11-28T00:47:38.015Z,4.10
2022-11-28T00:50:07.841Z,4.10
2022-11-28T00:52:35.996Z,4.10
2022-11-28T00:55:04.069Z,4.10
2022-11-28T00:57:32.038Z,4.10
2022-11-28T01:00:03.174Z,4.10
2022-11-28T01:02:32.827Z,4.10
2022-11-28T01:05:01.660Z,4.00
2022-11-28T01:07:29.742Z,4.00
2022-11-28T01:09:57.766Z,4.00
2022-11-28T01:12:27.627Z,4.00
2022-11-28T01:14:57.379Z,4.00
2022-11-28T01:17:27.046Z,4.00
2022-11-28T01:19:56.935Z,3.90
2022-11-28T01:22:26.000Z,4.00
2022-11-28T01:24:54.096Z,3.90
2022-11-28T01:27:23.052Z,3.90
2022-11-28T01:29:54.732Z,3.90
2022-11-28T01:32:23.024Z,3.90
2022-11-28T01:34:51.094Z,3.90
2022-11-28T01:37:21.027Z,3.90
2022-11-28T01:39:49.027Z,3.90
2022-11-28T01:42:21.110Z,3.90
2022-11-28T01:45:13.445Z,3.90
2022-11-28T01:47:44.383Z,3.90
2022-11-28T01:50:13.050Z,3.90
2022-11-28T01:52:48.934Z,3.90
2022-11-28T01:55:21.877Z,3.90
2022-11-28T01:57:53.027Z,3.90
2022-11-28T02:00:22.502Z,3.90
2022-11-28T02:02:58.040Z,3.90
2022-11-28T02:05:26.969Z,3.90
2022-11-28T02:07:56.421Z,3.90
2022-11-28T02:10:30.062Z,3.90
2022-11-28T02:13:14.057Z,3.90
2022-11-28T02:16:04.338Z,3.90
2022-11-28T02:18:50.719Z,3.90
2022-11-28T02:21:34.034Z,3.90
2022-11-28T02:24:41.291Z,3.90
2022-11-28T02:27:29.051Z,3.90
2022-11-28T02:30:18.027Z,3.90
2022-11-28T02:33:28.312Z,3.90
2022-11-28T02:36:07.110Z,3.90
2022-11-28T02:38:43.960Z,3.90
2022-11-28T02:41:23.691Z,3.90
2022-11-28T02:44:02.668Z,3.90
2022-11-28T02:46:38.920Z,3.90
2022-11-28T02:49:11.385Z,3.90
2022-11-28T02:51:47.206Z,3.90
2022-11-28T02:54:19.039Z,3.90
2022-11-28T02:56:50.216Z,3.80
2022-11-28T02:59:34.137Z,3.90
2022-11-28T03:02:04.766Z,3.90
2022-11-28T03:04:40.707Z,3.90
2022-11-28T03:07:29.855Z,3.90
2022-11-28T03:10:09.299Z,3.90
2022-11-28T03:12:52.148Z,3.90
2022-11-28T03:15:23.631Z,3.80
2022-11-28T03:18:25.651Z,3.80
2022-11-28T03:20:57.061Z,3.80
2022-11-28T03:23:35.119Z,3.80
2022-11-28T03:26:08.944Z,3.80
2022-11-28T03:28:51.283Z,3.80
2022-11-28T03:31:23.108Z,3.90
2022-11-28T03:33:55.351Z,3.80
2022-11-28T03:36:32.263Z,3.80
2022-11-28T03:39:08.090Z,3.80
2022-11-28T03:41:39.625Z,3.80
2022-11-28T03:44:12.077Z,3.70
2022-11-28T03:46:48.314Z,3.70
2022-11-28T03:49:23.951Z,3.70
2022-11-28T03:51:56.389Z,3.70
2022-11-28T03:54:31.114Z,3.70
2022-11-28T03:57:04.962Z,3.70
2022-11-28T03:59:36.948Z,3.70
2022-11-28T04:02:12.352Z,3.60
2022-11-28T04:04:50.992Z,3.70
2022-11-28T04:07:27.136Z,3.60
2022-11-28T04:10:03.030Z,3.60
2022-11-28T04:12:42.155Z,3.70
2022-11-28T04:15:15.968Z,3.70
2022-11-28T04:17:52.141Z,3.70
2022-11-28T04:20:28.409Z,3.70
2022-11-28T04:23:05.029Z,3.70
2022-11-28T04:25:38.537Z,3.70
2022-11-28T04:28:11.803Z,3.70
2022-11-28T04:30:41.154Z,3.70
2022-11-28T04:33:14.139Z,3.70
2022-11-28T04:35:46.099Z,3.70
2022-11-28T04:38:14.957Z,3.70
2022-11-28T04:40:50.741Z,3.70
2022-11-28T04:43:25.115Z,3.60
2022-11-28T04:46:01.170Z,3.60
2022-11-28T04:48:34.135Z,3.60
2022-11-28T04:51:21.182Z,3.50
2022-11-28T04:53:55.318Z,3.50
2022-11-28T04:56:30.398Z,3.50
2022-11-28T04:59:00.700Z,3.50
2022-11-28T05:01:31.645Z,3.50
2022-11-28T05:04:03.086Z,3.50
2022-11-28T05:06:32.954Z,3.50
2022-11-28T05:09:01.303Z,3.50
2022-11-28T05:11:30.844Z,3.50
2022-11-28T05:13:59.115Z,3.50
2022-11-28T05:16:30.135Z,3.50
2022-11-28T05:18:58.898Z,3.50
2022-11-28T05:21:26.897Z,3.50
2022-11-28T05:23:54.850Z,3.50
2022-11-28T05:26:24.161Z,3.50
2022-11-28T05:28:53.765Z,3.50
2022-11-28T05:31:23.681Z,3.50
2022-11-28T05:33:52.364Z,3.50
2022-11-28T05:36:20.982Z,3.50
2022-11-28T05:38:49.504Z,3.50
2022-11-28T05:41:21.803Z,3.50
2022-11-28T05:43:51.542Z,3.50
2022-11-28T05:46:21.508Z,3.50
2022-11-28T05:48:50.072Z,3.50
2022-11-28T05:51:18.436Z,3.50
2022-11-28T05:53:46.493Z,3.50
2022-11-28T05:56:16.087Z,3.50
2022-11-28T05:58:47.297Z,3.50
2022-11-28T06:01:17.204Z,3.50
2022-11-28T06:03:48.132Z,3.50
2022-11-28T06:06:17.773Z,3.50
2022-11-28T06:08:49.415Z,3.50
2022-11-28T06:11:17.787Z,3.50
2022-11-28T06:13:49.128Z,3.50
2022-11-28T06:16:23.281Z,3.50
2022-11-28T06:18:56.077Z,3.50
2022-11-28T06:21:25.067Z,3.50
2022-11-28T06:23:57.565Z,3.50
2022-11-28T06:26:27.022Z,3.50
2022-11-28T06:28:56.396Z,3.50
2022-11-28T06:31:28.187Z,3.50
2022-11-28T06:34:00.537Z,3.40
2022-11-28T06:36:28.601Z,3.50
2022-11-28T06:38:56.645Z,3.50
2022-11-28T06:41:25.015Z,3.50
2022-11-28T06:43:54.104Z,3.50
2022-11-28T06:46:27.345Z,3.50
2022-11-28T06:48:55.541Z,3.50
2022-11-28T06:51:24.949Z,3.50
2022-11-28T06:53:56.133Z,3.50
2022-11-28T06:56:27.191Z,3.50
2022-11-28T06:58:57.157Z,3.50
2022-11-28T07:01:26.837Z,3.50
2022-11-28T07:03:56.133Z,3.50
2022-11-28T07:06:30.112Z,3.50
2022-11-28T07:08:59.658Z,3.50
2022-11-28T07:11:30.212Z,3.60
2022-11-28T07:14:00.161Z,3.60
2022-11-28T07:16:34.254Z,3.50
2022-11-28T07:19:03.141Z,3.50
2022-11-28T07:21:33.203Z,3.50
2022-11-28T07:24:05.371Z,3.50
2022-11-28T07:26:34.180Z,3.50
2022-11-28T07:29:02.322Z,3.50
2022-11-28T07:31:32.605Z,3.40
2022-11-28T07:34:03.678Z,3.40
2022-11-28T07:36:36.149Z,3.50
2022-11-28T07:39:08.372Z,3.50
2022-11-28T07:41:37.157Z,3.50
2022-11-28T07:44:07.179Z,3.50
2022-11-28T07:46:36.171Z,3.50
2022-11-28T07:49:05.364Z,3.50
2022-11-28T07:51:36.070Z,3.50
2022-11-28T07:54:09.390Z,3.50
2022-11-28T07:57:10.685Z,3.50
2022-11-28T07:59:28.206Z,3.50
2022-11-28T08:02:00.460Z,3.50
2022-11-28T08:04:29.304Z,3.50
2022-11-28T08:06:58.693Z,3.40
2022-11-28T08:09:27.142Z,3.50
2022-11-28T08:11:55.244Z,3.50
2022-11-28T08:14:24.014Z,3.60
2022-11-28T08:16:53.570Z,3.60
2022-11-28T08:19:24.560Z,3.50
2022-11-28T08:21:52.872Z,3.60
2022-11-28T08:24:23.167Z,3.60
2022-11-28T08:26:51.846Z,3.60
2022-11-28T08:29:23.048Z,3.60
2022-11-28T08:31:51.160Z,3.60
2022-11-28T08:34:20.048Z,3.60
2022-11-28T08:36:49.111Z,3.70
2022-11-28T08:39:25.569Z,3.70
2022-11-28T08:41:57.308Z,3.70
2022-11-28T08:44:25.785Z,3.70
2022-11-28T08:46:57.560Z,3.80
2022-11-28T08:49:25.562Z,3.80
2022-11-28T08:51:54.171Z,3.80
2022-11-28T08:54:23.080Z,3.90
2022-11-28T08:56:51.180Z,3.90
2022-11-28T08:59:20.760Z,3.90
2022-11-28T09:01:54.236Z,3.90
2022-11-28T09:04:23.846Z,4.00
2022-11-28T09:06:53.629Z,4.00
2022-11-28T09:09:21.902Z,4.10
2022-11-28T09:11:54.066Z,4.10
2022-11-28T09:14:24.195Z,4.10
2022-11-28T09:16:53.274Z,4.10
2022-11-28T09:19:22.515Z,4.10
2022-11-28T09:21:57.374Z,4.20
2022-11-28T09:24:26.198Z,4.20
2022-11-28T09:26:55.289Z,4.30
2022-11-28T09:29:24.599Z,4.30
2022-11-28T09:31:56.257Z,4.30
2022-11-28T09:34:25.207Z,4.30
2022-11-28T09:36:54.095Z,4.40
2022-11-28T09:39:23.195Z,4.40
2022-11-28T09:42:10.199Z,4.40
2022-11-28T09:44:46.068Z,4.60
2022-11-28T09:47:23.194Z,4.60
2022-11-28T09:49:55.631Z,4.60
2022-11-28T09:52:34.253Z,4.70
2022-11-28T09:55:12.307Z,4.60
2022-11-28T09:57:45.215Z,4.70
2022-11-28T10:00:22.071Z,4.70
2022-11-28T10:03:13.634Z,4.70
2022-11-28T10:05:49.735Z,4.70
2022-11-28T10:08:27.009Z,4.70
2022-11-28T10:11:03.744Z,4.80
2022-11-28T10:14:07.312Z,4.80
2022-11-28T10:16:56.095Z,4.80
2022-11-28T10:22:32.993Z,4.90
2022-11-28T10:25:07.655Z,4.90
2022-11-28T10:27:40.352Z,4.90
2022-11-28T10:30:17.168Z,4.90
2022-11-28T10:33:02.296Z,4.80
2022-11-28T10:35:41.098Z,4.90
2022-11-28T10:38:13.060Z,4.90
2022-11-28T10:40:48.225Z,5.00
2022-11-28T10:43:29.209Z,4.90
2022-11-28T10:46:10.211Z,4.90
2022-11-28T10:48:50.988Z,4.90
2022-11-28T10:51:32.473Z,4.90
2022-11-28T10:54:22.192Z,4.90
2022-11-28T10:57:05.305Z,4.90
2022-11-28T10:59:44.980Z,4.90
2022-11-28T11:02:32.300Z,4.90
2022-11-28T11:05:05.318Z,4.90
2022-11-28T11:07:36.329Z,4.80
2022-11-28T11:10:16.300Z,4.90
2022-11-28T11:12:46.266Z,4.90
2022-11-28T11:15:31.114Z,4.90
2022-11-28T11:18:06.271Z,4.90
2022-11-28T11:20:39.140Z,4.90
2022-11-28T11:23:17.819Z,4.90
2022-11-28T11:25:55.380Z,4.90
2022-11-28T11:28:33.867Z,4.90
2022-11-28T11:31:04.716Z,5.00
2022-11-28T11:33:36.266Z,4.90
2022-11-28T11:36:23.352Z,4.90
2022-11-28T11:38:51.628Z,4.90
2022-11-28T11:41:31.350Z,5.00
2022-11-28T11:44:34.394Z,5.00
2022-11-28T11:47:10.344Z,5.00
2022-11-28T11:49:40.618Z,4.90
2022-11-28T11:52:20.400Z,4.90
2022-11-28T11:54:58.673Z,4.90
2022-11-28T11:57:34.433Z,4.80
2022-11-28T12:00:08.093Z,4.80
2022-11-28T12:02:48.402Z,4.80
2022-11-28T12:05:20.318Z,4.70
2022-11-28T12:07:58.247Z,4.70
2022-11-28T12:10:30.215Z,4.70
2022-11-28T12:13:02.786Z,4.70
2022-11-28T12:15:47.322Z,4.70
2022-11-28T12:18:26.258Z,4.70
2022-11-28T12:21:08.479Z,4.70
2022-11-28T12:23:52.300Z,4.70
2022-11-28T12:26:26.273Z,4.60
2022-11-28T12:29:11.982Z,4.60
2022-11-28T12:31:48.802Z,4.60
2022-11-28T12:34:30.253Z,4.60
2022-11-28T12:37:08.258Z,4.60
2022-11-28T12:39:47.065Z,4.60
2022-11-28T12:42:31.099Z,4.50
2022-11-28T12:45:19.149Z,4.50
2022-11-28T12:47:57.403Z,4.50
2022-11-28T12:50:35.306Z,4.50
2022-11-28T12:53:24.705Z,4.40
2022-11-28T12:56:07.332Z,4.50
2022-11-28T12:58:41.311Z,4.50
2022-11-28T13:01:29.204Z,4.50
2022-11-28T13:04:07.248Z,4.40
2022-11-28T13:06:44.164Z,4.40
2022-11-28T13:09:28.252Z,4.40
2022-11-28T13:12:15.318Z,4.50
2022-11-28T13:14:52.718Z,4.40
2022-11-28T13:17:40.005Z,4.40
2022-11-28T13:20:19.661Z,4.30
2022-11-28T13:22:59.951Z,4.30
2022-11-28T13:25:34.989Z,4.30
2022-11-28T13:28:22.098Z,4.30
2022-11-28T13:30:54.209Z,4.30
2022-11-28T13:33:45.042Z,4.30
2022-11-28T13:39:14.160Z,4.30
2022-11-28T13:44:49.554Z,4.30
2022-11-28T13:47:29.348Z,4.30
2022-11-28T13:50:37.032Z,4.30
2022-11-28T13:53:22.267Z,4.40
2022-11-28T13:55:53.351Z,4.30
2022-11-28T13:58:48.647Z,4.30
2022-11-28T14:01:23.260Z,4.30
2022-11-28T14:03:55.282Z,4.30
2022-11-28T14:06:26.553Z,4.30
2022-11-28T14:09:07.416Z,4.20
2022-11-28T14:11:49.914Z,4.20
2022-11-28T14:14:36.296Z,4.20
2022-11-28T14:17:20.073Z,4.20
2022-11-28T14:20:12.421Z,4.20
2022-11-28T14:22:55.119Z,4.20
2022-11-28T14:25:28.537Z,4.20
2022-11-28T14:28:24.265Z,4.20
2022-11-28T14:30:53.932Z,4.20
2022-11-28T14:33:27.272Z,4.10
2022-11-28T14:36:21.071Z,4.10
2022-11-28T14:39:04.292Z,4.10
2022-11-28T14:41:32.542Z,4.10
2022-11-28T14:44:35.321Z,4.10
2022-11-28T14:47:15.893Z,4.10
2022-11-28T14:49:49.273Z,4.10
2022-11-28T14:52:41.850Z,4.10
2022-11-28T14:55:23.426Z,4.10
2022-11-28T14:57:57.358Z,4.10
2022-11-28T15:00:27.820Z,4.10
2022-11-28T15:03:15.999Z,4.00
2022-11-28T15:05:50.885Z,4.00
2022-11-28T15:08:58.951Z,4.00
2022-11-28T15:11:58.615Z,4.00
2022-11-28T15:14:34.372Z,4.10
2022-11-28T15:17:08.329Z,4.10
2022-11-28T15:19:46.264Z,4.10
2022-11-28T15:22:32.679Z,4.00
2022-11-28T15:25:02.046Z,4.10
2022-11-28T15:27:30.566Z,4.00
2022-11-28T15:30:01.237Z,4.00
2022-11-28T15:32:35.402Z,4.00
2022-11-28T15:35:12.357Z,4.00
2022-11-28T15:37:50.626Z,4.00
2022-11-28T15:40:25.432Z,3.90
2022-11-28T15:42:54.327Z,3.90
2022-11-28T15:45:26.151Z,3.90
2022-11-28T15:48:00.169Z,3.90
2022-11-28T15:50:31.031Z,3.90
2022-11-28T15:53:03.579Z,3.90
2022-11-28T15:55:36.228Z,3.90
2022-11-28T15:58:19.538Z,3.90
2022-11-28T16:00:52.384Z,3.90
2022-11-28T16:03:27.770Z,3.90
2022-11-28T16:05:57.986Z,3.90
2022-11-28T16:08:32.240Z,3.90
2022-11-28T16:11:02.334Z,3.90
2022-11-28T16:13:32.492Z,3.90
2022-11-28T16:16:04.152Z,3.90
2022-11-28T16:18:32.743Z,3.90
2022-11-28T16:21:02.146Z,3.80
2022-11-28T16:23:35.276Z,3.80
2022-11-28T16:26:08.536Z,3.80
2022-11-28T16:28:39.073Z,3.90
2022-11-28T16:31:12.636Z,3.80
2022-11-28T16:33:44.852Z,3.90
2022-11-28T16:36:23.294Z,3.90
2022-11-28T16:38:54.952Z,3.80
2022-11-28T16:41:25.342Z,3.80
2022-11-28T16:43:57.039Z,3.80
2022-11-28T16:46:27.362Z,3.80
2022-11-28T16:48:58.621Z,3.80
2022-11-28T16:51:38.253Z,3.80
2022-11-28T16:54:31.109Z,3.80
2022-11-28T16:57:10.435Z,3.80
2022-11-28T16:59:38.488Z,3.70
2022-11-28T17:02:14.592Z,3.80
2022-11-28T17:04:45.103Z,3.80
2022-11-28T17:07:15.109Z,3.80
2022-11-28T17:09:45.724Z,3.80
2022-11-28T17:12:21.441Z,3.80
2022-11-28T17:14:49.472Z,3.80
2022-11-28T17:17:19.503Z,3.80
2022-11-28T17:19:48.286Z,3.80
2022-11-28T17:22:22.188Z,3.80
2022-11-28T17:24:53.260Z,3.80
2022-11-28T17:27:22.052Z,3.80
2022-11-28T17:29:49.991Z,3.80
2022-11-28T17:32:23.441Z,3.80
2022-11-28T17:34:51.430Z,3.70
2022-11-28T17:37:20.361Z,3.70
2022-11-28T17:40:02.368Z,3.70
2022-11-28T17:42:32.386Z,3.80
2022-11-28T17:45:00.713Z,3.70
2022-11-28T17:47:32.426Z,3.70
2022-11-28T17:50:00.461Z,3.70
2022-11-28T17:52:30.376Z,3.70
2022-11-28T17:55:06.917Z,3.70
2022-11-28T17:57:37.322Z,3.70
2022-11-28T18:00:07.563Z,3.70
2022-11-28T18:02:41.998Z,3.70
2022-11-28T18:05:10.866Z,3.70
2022-11-28T18:07:40.853Z,3.70
2022-11-28T18:10:16.282Z,3.60
2022-11-28T18:12:45.722Z,3.60
2022-11-28T18:15:13.751Z,3.60
2022-11-28T18:17:41.881Z,3.50
2022-11-28T18:20:11.317Z,3.50
2022-11-28T18:22:43.166Z,3.50
2022-11-28T18:25:11.344Z,3.50
2022-11-28T18:27:40.391Z,3.50
2022-11-28T18:30:12.312Z,3.50
2022-11-28T18:32:40.675Z,3.50
2022-11-28T18:35:12.431Z,3.50
2022-11-28T18:37:40.625Z,3.50
2022-11-28T18:40:09.888Z,3.50
2022-11-28T18:42:38.998Z,3.40
2022-11-28T18:45:08.398Z,3.40
2022-11-28T18:47:41.442Z,3.40
2022-11-28T18:50:10.262Z,3.40
2022-11-28T18:52:38.866Z,3.30
2022-11-28T18:55:07.742Z,3.40
2022-11-28T18:57:36.868Z,3.40
2022-11-28T19:00:08.681Z,3.30
2022-11-28T19:02:37.096Z,3.30
2022-11-28T19:05:07.622Z,3.30
2022-11-28T19:07:36.419Z,3.20
2022-11-28T19:10:09.396Z,3.20
2022-11-28T19:12:38.188Z,3.20
2022-11-28T19:15:08.228Z,3.20
2022-11-28T19:17:36.393Z,3.10
2022-11-28T19:20:07.068Z,3.10
2022-11-28T19:22:38.121Z,3.10
2022-11-28T19:25:07.600Z,3.10
2022-11-28T19:27:36.225Z,3.10
2022-11-28T19:30:05.136Z,3.10
2022-11-28T19:32:33.750Z,3.00
2022-11-28T19:35:01.963Z,3.10
2022-11-28T19:37:32.347Z,3.10
2022-11-28T19:40:02.823Z,3.00
2022-11-28T19:42:32.410Z,3.00
2022-11-28T19:45:01.548Z,2.90
2022-11-28T19:47:29.594Z,2.90
2022-11-28T19:50:00.958Z,2.90
2022-11-28T19:52:29.479Z,2.90
2022-11-28T19:54:59.061Z,3.00
2022-11-28T19:57:27.296Z,2.90
2022-11-28T19:59:55.255Z,2.90
2022-11-28T20:02:23.586Z,3.00
2022-11-28T20:04:54.656Z,3.00
2022-11-28T20:07:22.927Z,3.00
2022-11-28T20:09:51.018Z,3.00
2022-11-28T20:12:20.529Z,3.00
2022-11-28T20:14:48.551Z,3.00
2022-11-28T20:17:17.185Z,3.00
2022-11-28T20:19:46.032Z,3.00
2022-11-28T20:22:17.098Z,3.00
2022-11-28T20:24:45.185Z,3.00
2022-11-28T20:27:13.318Z,2.90
2022-11-28T20:29:43.487Z,2.90
2022-11-28T20:32:11.777Z,2.90
2022-11-28T20:34:43.400Z,3.00
2022-11-28T20:37:11.486Z,2.90
2022-11-28T20:39:40.546Z,2.90
2022-11-28T20:42:09.460Z,2.90
2022-11-28T20:44:38.017Z,2.90
2022-11-28T20:47:10.999Z,2.80
2022-11-28T20:49:40.573Z,2.80
2022-11-28T20:52:09.534Z,2.80
2022-11-28T20:54:38.434Z,2.80
2022-11-28T20:57:21.403Z,2.80
2022-11-28T20:59:51.077Z,2.90
2022-11-28T21:02:22.628Z,2.90
2022-11-28T21:04:52.463Z,2.80
2022-11-28T21:07:21.011Z,2.70
2022-11-28T21:09:49.641Z,2.70
2022-11-28T21:12:21.083Z,2.70
2022-11-28T21:14:50.136Z,2.70
2022-11-28T21:17:20.148Z,2.60
2022-11-28T21:19:49.425Z,2.60
2022-11-28T21:22:18.092Z,2.60
2022-11-28T21:24:49.613Z,2.60
2022-11-28T21:27:18.853Z,2.60
2022-11-28T21:29:47.200Z,2.60
2022-11-28T21:32:16.298Z,2.60
2022-11-28T21:34:45.929Z,2.60
2022-11-28T21:37:14.609Z,2.60
2022-11-28T21:39:43.396Z,2.60
2022-11-28T21:42:17.432Z,2.60
2022-11-28T21:44:48.854Z,2.70
2022-11-28T21:47:20.329Z,2.70
2022-11-28T21:49:50.591Z,2.70
2022-11-28T21:52:23.472Z,2.70
2022-11-28T21:54:54.575Z,2.70
2022-11-28T21:57:23.560Z,2.70
2022-11-28T21:59:51.925Z,2.70
2022-11-28T22:02:24.910Z,2.70
2022-11-28T22:04:58.944Z,2.70
2022-11-28T22:07:28.562Z,2.70
2022-11-28T22:09:58.150Z,2.70
2022-11-28T22:12:31.687Z,2.70
2022-11-28T22:15:00.716Z,2.70
2022-11-28T22:17:31.556Z,2.70
2022-11-28T22:20:01.748Z,2.60
2022-11-28T22:22:33.598Z,2.60
2022-11-28T22:25:02.253Z,2.70
2022-11-28T22:27:33.125Z,2.70
2022-11-28T22:30:01.431Z,2.70
2022-11-28T22:32:33.085Z,2.70
2022-11-28T22:35:04.465Z,2.70
2022-11-28T22:37:33.525Z,2.70
2022-11-28T22:40:01.913Z,2.70
2022-11-28T22:42:30.903Z,2.70
2022-11-28T22:44:59.217Z,2.70
2022-11-28T22:47:28.659Z,2.70
2022-11-28T22:49:57.233Z,2.70
2022-11-28T22:52:27.519Z,2.70
2022-11-28T22:54:56.419Z,2.70
2022-11-28T22:57:29.208Z,2.70
2022-11-28T22:59:58.603Z,2.70
2022-11-28T23:02:29.492Z,2.70
2022-11-28T23:04:58.081Z,2.70
2022-11-28T23:07:28.617Z,2.70
2022-11-28T23:09:59.483Z,2.70
2022-11-28T23:12:28.561Z,2.70
2022-11-28T23:14:56.969Z,2.70
2022-11-28T23:17:25.758Z,2.70
2022-11-28T23:19:54.382Z,2.70
2022-11-28T23:22:46.817Z,2.70
2022-11-28T23:25:21.058Z,2.70
2022-11-28T23:27:50.554Z,2.60
2022-11-28T23:30:18.955Z,2.60
2022-11-28T23:32:47.900Z,2.60
2022-11-28T23:35:17.384Z,2.60
2022-11-28T23:37:49.349Z,2.60
2022-11-28T23:40:19.224Z,2.60
2022-11-28T23:42:47.646Z,2.60
2022-11-28T23:45:16.372Z,2.70
2022-11-28T23:47:45.017Z,2.60
2022-11-28T23:50:13.725Z,2.60
2022-11-28T23:52:45.807Z,2.60
2022-11-28T23:55:14.119Z,2.60
2022-11-28T23:57:43.980Z,2.60
